Youngstown Warren Regional Airport Youngstown,Warren US
ICAO: KYNG
IATA: YNG
Category: Medium
Scheduled Services: No

Elevation: 1192 ft
TransAlt. 18000 ft.

Airport Communications:
APP/DEP:127.15
ATIS:123.75
CLNC DEL:118.25
GND:121.9
910 AW COMD POST:23.882
CLEVELAND RDO:122.2
TWR:119.5
UNICOM:122.95

KYNG Zoom In..

If you have problems with the map follow the link
https://www.worldairports.se/pages/airport.php?
ICAO=KYNG

Runways:

(A) RW 05 length 5002 ft width 150 ft
---- / hdg 53

(B) RW 14 length 9003 ft width 150 ft
ILS 110.10 / hdg 143

(C) RW 23 length 5002 ft width 150 ft
---- / hdg 233

(D) RW 32 length 9003 ft width 150 ft
ILS 110.10 / hdg 323

Location; KYNG
Day. 11 / Time. 13.51 Zulu
* Altimeter: 30.31
* Temperature: -07° c. -19.4°f.
* Wind from: 240° Speed 13 kn.
Dewpoint: -12° c.
Visibility: 10 Statute Miles.
Clouds: Clear (automated report).

KYNG 111351Z 24013KT 10SM CLR M07/M12 A3031 RMK AO2 SLP282 T10671122


Wind From 240°
Speed 13 kn.

 
 
jpsmedia worldairports.se 2019   terms of use